sensor_id;sensor_type;location;lat;lon;timestamp;P1;durP1;ratioP1;P2;durP2;ratioP2
29210;SDS011;16250;49.932;10.980;2022-10-31T00:01:08;15.95;;;10.43;;
29210;SDS011;16250;49.932;10.980;2022-10-31T00:03:35;15.52;;;10.65;;
29210;SDS011;16250;49.932;10.980;2022-10-31T00:06:01;15.52;;;9.50;;
29210;SDS011;16250;49.932;10.980;2022-10-31T00:08:26;16.65;;;10.48;;
29210;SDS011;16250;49.932;10.980;2022-10-31T00:10:52;13.95;;;9.23;;
29210;SDS011;16250;49.932;10.980;2022-10-31T00:13:17;14.90;;;9.57;;
29210;SDS011;16250;49.932;10.980;2022-10-31T00:15:43;14.00;;;9.77;;
29210;SDS011;16250;49.932;10.980;2022-10-31T00:18:08;14.45;;;9.38;;
29210;SDS011;16250;49.932;10.980;2022-10-31T00:20:35;17.58;;;10.40;;
29210;SDS011;16250;49.932;10.980;2022-10-31T00:23:01;14.52;;;8.93;;
29210;SDS011;16250;49.932;10.980;2022-10-31T00:25:28;13.82;;;9.30;;
29210;SDS011;16250;49.932;10.980;2022-10-31T00:27:57;14.65;;;8.90;;
29210;SDS011;16250;49.932;10.980;2022-10-31T00:30:22;19.75;;;10.85;;
29210;SDS011;16250;49.932;10.980;2022-10-31T00:32:48;16.90;;;9.98;;
29210;SDS011;16250;49.932;10.980;2022-10-31T00:35:14;16.30;;;9.45;;
29210;SDS011;16250;49.932;10.980;2022-10-31T00:37:39;17.58;;;9.10;;
29210;SDS011;16250;49.932;10.980;2022-10-31T00:40:05;14.60;;;8.48;;
29210;SDS011;16250;49.932;10.980;2022-10-31T00:42:31;13.95;;;9.45;;
29210;SDS011;16250;49.932;10.980;2022-10-31T00:44:57;13.10;;;8.73;;
29210;SDS011;16250;49.932;10.980;2022-10-31T00:47:22;17.33;;;9.05;;
29210;SDS011;16250;49.932;10.980;2022-10-31T00:49:48;11.93;;;8.18;;
29210;SDS011;16250;49.932;10.980;2022-10-31T00:52:13;14.90;;;8.13;;
29210;SDS011;16250;49.932;10.980;2022-10-31T00:54:39;12.63;;;7.90;;
29210;SDS011;16250;49.932;10.980;2022-10-31T00:57:04;14.88;;;8.90;;
29210;SDS011;16250;49.932;10.980;2022-10-31T00:59:30;15.55;;;9.18;;
29210;SDS011;16250;49.932;10.980;2022-10-31T01:01:55;16.33;;;9.50;;
29210;SDS011;16250;49.932;10.980;2022-10-31T01:04:21;14.15;;;8.40;;
29210;SDS011;16250;49.932;10.980;2022-10-31T01:06:47;14.07;;;8.15;;
29210;SDS011;16250;49.932;10.980;2022-10-31T01:09:12;16.30;;;8.02;;
29210;SDS011;16250;49.932;10.980;2022-10-31T01:11:38;15.85;;;7.88;;
29210;SDS011;16250;49.932;10.980;2022-10-31T01:14:03;13.68;;;8.68;;
29210;SDS011;16250;49.932;10.980;2022-10-31T01:16:29;16.67;;;9.13;;
29210;SDS011;16250;49.932;10.980;2022-10-31T01:18:54;16.00;;;8.75;;
29210;SDS011;16250;49.932;10.980;2022-10-31T01:21:21;15.20;;;8.45;;
29210;SDS011;16250;49.932;10.980;2022-10-31T01:23:49;11.98;;;8.68;;
29210;SDS011;16250;49.932;10.980;2022-10-31T01:26:17;12.60;;;9.02;;
29210;SDS011;16250;49.932;10.980;2022-10-31T01:31:11;12.40;;;8.00;;
29210;SDS011;16250;49.932;10.980;2022-10-31T01:33:37;15.85;;;8.05;;
29210;SDS011;16250;49.932;10.980;2022-10-31T01:36:13;13.48;;;8.75;;
29210;SDS011;16250;49.932;10.980;2022-10-31T01:38:47;17.35;;;8.50;;
29210;SDS011;16250;49.932;10.980;2022-10-31T01:41:15;18.00;;;9.32;;
29210;SDS011;16250;49.932;10.980;2022-10-31T01:43:47;20.42;;;9.50;;
29210;SDS011;16250;49.932;10.980;2022-10-31T01:46:16;15.35;;;8.98;;
29210;SDS011;16250;49.932;10.980;2022-10-31T01:48:45;17.55;;;9.20;;
29210;SDS011;16250;49.932;10.980;2022-10-31T01:51:12;16.17;;;11.00;;
29210;SDS011;16250;49.932;10.980;2022-10-31T01:53:39;15.63;;;10.95;;
29210;SDS011;16250;49.932;10.980;2022-10-31T01:56:06;20.30;;;12.60;;
29210;SDS011;16250;49.932;10.980;2022-10-31T01:58:33;70.32;;;16.90;;
29210;SDS011;16250;49.932;10.980;2022-10-31T02:00:59;22.33;;;12.65;;
29210;SDS011;16250;49.932;10.980;2022-10-31T02:03:26;16.08;;;11.88;;
29210;SDS011;16250;49.932;10.980;2022-10-31T02:05:54;13.73;;;10.02;;
29210;SDS011;16250;49.932;10.980;2022-10-31T02:08:31;15.43;;;9.80;;
29210;SDS011;16250;49.932;10.980;2022-10-31T02:10:59;14.13;;;9.05;;
29210;SDS011;16250;49.932;10.980;2022-10-31T02:13:27;12.95;;;10.63;;
29210;SDS011;16250;49.932;10.980;2022-10-31T02:15:54;16.67;;;9.80;;
29210;SDS011;16250;49.932;10.980;2022-10-31T02:18:23;11.98;;;9.27;;
29210;SDS011;16250;49.932;10.980;2022-10-31T02:21:05;16.05;;;11.15;;
29210;SDS011;16250;49.932;10.980;2022-10-31T02:26:46;14.18;;;9.23;;
29210;SDS011;16250;49.932;10.980;2022-10-31T02:32:11;18.30;;;10.00;;
29210;SDS011;16250;49.932;10.980;2022-10-31T02:34:55;12.85;;;9.07;;
29210;SDS011;16250;49.932;10.980;2022-10-31T02:40:39;13.77;;;9.63;;
29210;SDS011;16250;49.932;10.980;2022-10-31T02:46:48;13.45;;;9.32;;
29210;SDS011;16250;49.932;10.980;2022-10-31T02:49:27;18.42;;;11.30;;
29210;SDS011;16250;49.932;10.980;2022-10-31T02:52:12;13.23;;;10.13;;
29210;SDS011;16250;49.932;10.980;2022-10-31T02:54:39;18.05;;;11.75;;
29210;SDS011;16250;49.932;10.980;2022-10-31T02:57:06;18.10;;;11.93;;
29210;SDS011;16250;49.932;10.980;2022-10-31T02:59:33;19.48;;;11.38;;
29210;SDS011;16250;49.932;10.980;2022-10-31T03:04:57;14.00;;;10.10;;
29210;SDS011;16250;49.932;10.980;2022-10-31T03:12:47;13.50;;;10.60;;
29210;SDS011;16250;49.932;10.980;2022-10-31T03:15:25;17.17;;;12.30;;
29210;SDS011;16250;49.932;10.980;2022-10-31T03:18:04;16.88;;;12.55;;
29210;SDS011;16250;49.932;10.980;2022-10-31T03:20:40;17.88;;;15.93;;
29210;SDS011;16250;49.932;10.980;2022-10-31T03:23:11;18.45;;;15.32;;
29210;SDS011;16250;49.932;10.980;2022-10-31T03:25:40;22.92;;;17.20;;
29210;SDS011;16250;49.932;10.980;2022-10-31T03:28:08;22.13;;;15.98;;
29210;SDS011;16250;49.932;10.980;2022-10-31T03:30:37;19.27;;;15.63;;
29210;SDS011;16250;49.932;10.980;2022-10-31T03:33:06;28.02;;;18.35;;
29210;SDS011;16250;49.932;10.980;2022-10-31T03:35:35;22.88;;;16.92;;
29210;SDS011;16250;49.932;10.980;2022-10-31T03:38:01;34.80;;;24.48;;
29210;SDS011;16250;49.932;10.980;2022-10-31T03:40:27;28.58;;;20.77;;
29210;SDS011;16250;49.932;10.980;2022-10-31T03:42:57;27.48;;;19.73;;
29210;SDS011;16250;49.932;10.980;2022-10-31T03:45:29;24.10;;;17.25;;
29210;SDS011;16250;49.932;10.980;2022-10-31T03:47:56;15.55;;;13.90;;
29210;SDS011;16250;49.932;10.980;2022-10-31T03:50:24;25.83;;;16.40;;
29210;SDS011;16250;49.932;10.980;2022-10-31T03:55:41;20.50;;;13.90;;
29210;SDS011;16250;49.932;10.980;2022-10-31T04:00:43;16.38;;;11.23;;
29210;SDS011;16250;49.932;10.980;2022-10-31T04:06:08;14.82;;;11.75;;
29210;SDS011;16250;49.932;10.980;2022-10-31T04:08:39;18.27;;;12.65;;
29210;SDS011;16250;49.932;10.980;2022-10-31T04:11:08;15.10;;;12.88;;
29210;SDS011;16250;49.932;10.980;2022-10-31T04:13:36;16.83;;;12.00;;
29210;SDS011;16250;49.932;10.980;2022-10-31T04:16:04;13.70;;;11.30;;
29210;SDS011;16250;49.932;10.980;2022-10-31T04:18:30;16.27;;;10.93;;
29210;SDS011;16250;49.932;10.980;2022-10-31T04:21:03;17.20;;;12.60;;
29210;SDS011;16250;49.932;10.980;2022-10-31T04:23:30;19.67;;;12.70;;
29210;SDS011;16250;49.932;10.980;2022-10-31T04:25:56;16.52;;;12.27;;
29210;SDS011;16250;49.932;10.980;2022-10-31T04:28:22;17.42;;;14.50;;
29210;SDS011;16250;49.932;10.980;2022-10-31T04:30:47;20.67;;;17.13;;
29210;SDS011;16250;49.932;10.980;2022-10-31T04:33:13;22.15;;;19.60;;
29210;SDS011;16250;49.932;10.980;2022-10-31T04:35:39;41.78;;;22.98;;
29210;SDS011;16250;49.932;10.980;2022-10-31T04:38:05;39.15;;;18.45;;
29210;SDS011;16250;49.932;10.980;2022-10-31T04:40:30;103.55;;;19.75;;
29210;SDS011;16250;49.932;10.980;2022-10-31T04:42:56;201.38;;;32.78;;
29210;SDS011;16250;49.932;10.980;2022-10-31T04:45:22;529.63;;;50.47;;
29210;SDS011;16250;49.932;10.980;2022-10-31T04:47:47;251.70;;;42.13;;
29210;SDS011;16250;49.932;10.980;2022-10-31T04:50:13;135.35;;;24.50;;
29210;SDS011;16250;49.932;10.980;2022-10-31T04:52:42;73.55;;;20.33;;
29210;SDS011;16250;49.932;10.980;2022-10-31T04:55:08;116.13;;;28.15;;
29210;SDS011;16250;49.932;10.980;2022-10-31T04:57:41;95.20;;;25.48;;
29210;SDS011;16250;49.932;10.980;2022-10-31T05:00:08;60.90;;;21.40;;
29210;SDS011;16250;49.932;10.980;2022-10-31T05:02:41;82.35;;;24.92;;
29210;SDS011;16250;49.932;10.980;2022-10-31T05:05:12;33.50;;;23.25;;
29210;SDS011;16250;49.932;10.980;2022-10-31T05:07:39;30.67;;;13.10;;
29210;SDS011;16250;49.932;10.980;2022-10-31T05:10:09;79.35;;;17.75;;
29210;SDS011;16250;49.932;10.980;2022-10-31T05:12:36;73.50;;;16.88;;
29210;SDS011;16250;49.932;10.980;2022-10-31T05:15:02;51.63;;;22.80;;
29210;SDS011;16250;49.932;10.980;2022-10-31T05:17:30;46.95;;;22.50;;
29210;SDS011;16250;49.932;10.980;2022-10-31T05:19:56;46.53;;;22.05;;
29210;SDS011;16250;49.932;10.980;2022-10-31T05:22:21;45.60;;;14.13;;
29210;SDS011;16250;49.932;10.980;2022-10-31T05:24:47;59.20;;;15.90;;
29210;SDS011;16250;49.932;10.980;2022-10-31T05:27:12;27.85;;;14.05;;
29210;SDS011;16250;49.932;10.980;2022-10-31T05:29:38;33.72;;;15.95;;
29210;SDS011;16250;49.932;10.980;2022-10-31T05:32:03;50.47;;;18.25;;
29210;SDS011;16250;49.932;10.980;2022-10-31T05:34:29;18.60;;;11.48;;
29210;SDS011;16250;49.932;10.980;2022-10-31T05:36:55;22.88;;;14.07;;
29210;SDS011;16250;49.932;10.980;2022-10-31T05:39:20;23.85;;;14.23;;
29210;SDS011;16250;49.932;10.980;2022-10-31T05:41:46;20.88;;;12.82;;
29210;SDS011;16250;49.932;10.980;2022-10-31T05:44:11;55.22;;;20.35;;
29210;SDS011;16250;49.932;10.980;2022-10-31T05:46:37;22.50;;;18.00;;
29210;SDS011;16250;49.932;10.980;2022-10-31T05:49:02;26.17;;;16.35;;
29210;SDS011;16250;49.932;10.980;2022-10-31T05:51:28;27.00;;;16.38;;
29210;SDS011;16250;49.932;10.980;2022-10-31T05:53:53;225.63;;;35.60;;
29210;SDS011;16250;49.932;10.980;2022-10-31T05:56:19;175.75;;;32.50;;
29210;SDS011;16250;49.932;10.980;2022-10-31T05:58:44;204.00;;;31.25;;
29210;SDS011;16250;49.932;10.980;2022-10-31T06:01:10;446.13;;;47.58;;
29210;SDS011;16250;49.932;10.980;2022-10-31T06:03:35;440.15;;;37.88;;
29210;SDS011;16250;49.932;10.980;2022-10-31T06:06:01;314.13;;;36.45;;
29210;SDS011;16250;49.932;10.980;2022-10-31T06:08:26;254.40;;;31.08;;
29210;SDS011;16250;49.932;10.980;2022-10-31T06:10:52;197.48;;;28.40;;
29210;SDS011;16250;49.932;10.980;2022-10-31T06:13:18;313.88;;;27.60;;
29210;SDS011;16250;49.932;10.980;2022-10-31T06:15:44;184.02;;;25.55;;
29210;SDS011;16250;49.932;10.980;2022-10-31T06:18:09;183.30;;;31.30;;
29210;SDS011;16250;49.932;10.980;2022-10-31T06:20:35;126.53;;;34.88;;
29210;SDS011;16250;49.932;10.980;2022-10-31T06:23:00;194.98;;;45.08;;
29210;SDS011;16250;49.932;10.980;2022-10-31T06:25:26;405.67;;;68.53;;
29210;SDS011;16250;49.932;10.980;2022-10-31T06:27:52;390.05;;;57.65;;
29210;SDS011;16250;49.932;10.980;2022-10-31T06:30:18;388.42;;;66.72;;
29210;SDS011;16250;49.932;10.980;2022-10-31T06:32:44;343.63;;;67.10;;
29210;SDS011;16250;49.932;10.980;2022-10-31T06:35:09;318.75;;;62.58;;
29210;SDS011;16250;49.932;10.980;2022-10-31T06:37:35;325.38;;;68.70;;
29210;SDS011;16250;49.932;10.980;2022-10-31T06:40:01;376.05;;;55.30;;
29210;SDS011;16250;49.932;10.980;2022-10-31T06:42:26;197.70;;;33.13;;
29210;SDS011;16250;49.932;10.980;2022-10-31T06:44:52;350.70;;;52.88;;
29210;SDS011;16250;49.932;10.980;2022-10-31T06:47:17;265.42;;;45.47;;
29210;SDS011;16250;49.932;10.980;2022-10-31T06:49:43;424.35;;;58.33;;
29210;SDS011;16250;49.932;10.980;2022-10-31T06:52:08;320.05;;;57.15;;
29210;SDS011;16250;49.932;10.980;2022-10-31T06:54:34;288.75;;;52.22;;
29210;SDS011;16250;49.932;10.980;2022-10-31T06:56:59;263.23;;;55.53;;
29210;SDS011;16250;49.932;10.980;2022-10-31T06:59:25;168.50;;;40.38;;
29210;SDS011;16250;49.932;10.980;2022-10-31T07:01:50;358.10;;;53.65;;
29210;SDS011;16250;49.932;10.980;2022-10-31T07:04:16;327.40;;;71.07;;
29210;SDS011;16250;49.932;10.980;2022-10-31T07:06:41;219.07;;;44.13;;
29210;SDS011;16250;49.932;10.980;2022-10-31T07:09:07;153.32;;;34.25;;
29210;SDS011;16250;49.932;10.980;2022-10-31T07:11:32;131.48;;;39.15;;
29210;SDS011;16250;49.932;10.980;2022-10-31T07:13:58;79.50;;;25.95;;
29210;SDS011;16250;49.932;10.980;2022-10-31T07:16:23;162.30;;;57.30;;
29210;SDS011;16250;49.932;10.980;2022-10-31T07:18:49;230.02;;;50.70;;
29210;SDS011;16250;49.932;10.980;2022-10-31T07:21:15;244.55;;;57.28;;
29210;SDS011;16250;49.932;10.980;2022-10-31T07:23:40;62.70;;;29.25;;
29210;SDS011;16250;49.932;10.980;2022-10-31T07:26:07;117.55;;;37.17;;
29210;SDS011;16250;49.932;10.980;2022-10-31T07:28:34;203.57;;;46.20;;
29210;SDS011;16250;49.932;10.980;2022-10-31T07:30:59;145.75;;;36.17;;
29210;SDS011;16250;49.932;10.980;2022-10-31T07:33:25;241.40;;;42.13;;
29210;SDS011;16250;49.932;10.980;2022-10-31T07:35:51;114.68;;;38.03;;
29210;SDS011;16250;49.932;10.980;2022-10-31T07:38:17;100.63;;;24.08;;
29210;SDS011;16250;49.932;10.980;2022-10-31T07:40:42;133.43;;;32.85;;
29210;SDS011;16250;49.932;10.980;2022-10-31T07:43:10;146.60;;;34.70;;
29210;SDS011;16250;49.932;10.980;2022-10-31T07:45:36;74.97;;;27.75;;
29210;SDS011;16250;49.932;10.980;2022-10-31T07:48:01;142.45;;;32.47;;
29210;SDS011;16250;49.932;10.980;2022-10-31T07:50:28;144.73;;;32.95;;
29210;SDS011;16250;49.932;10.980;2022-10-31T07:53:05;132.95;;;41.10;;
29210;SDS011;16250;49.932;10.980;2022-10-31T07:55:37;77.88;;;26.13;;
29210;SDS011;16250;49.932;10.980;2022-10-31T07:58:04;56.75;;;23.80;;
29210;SDS011;16250;49.932;10.980;2022-10-31T08:00:32;67.57;;;24.63;;
29210;SDS011;16250;49.932;10.980;2022-10-31T08:03:05;101.63;;;31.42;;
29210;SDS011;16250;49.932;10.980;2022-10-31T08:05:33;159.57;;;26.38;;
29210;SDS011;16250;49.932;10.980;2022-10-31T08:07:59;180.10;;;34.65;;
29210;SDS011;16250;49.932;10.980;2022-10-31T08:10:25;101.35;;;25.02;;
29210;SDS011;16250;49.932;10.980;2022-10-31T08:13:01;143.20;;;32.28;;
29210;SDS011;16250;49.932;10.980;2022-10-31T08:15:31;247.95;;;44.08;;
29210;SDS011;16250;49.932;10.980;2022-10-31T08:17:59;131.48;;;30.23;;
29210;SDS011;16250;49.932;10.980;2022-10-31T08:20:25;206.88;;;32.38;;
29210;SDS011;16250;49.932;10.980;2022-10-31T08:22:57;248.50;;;41.60;;
29210;SDS011;16250;49.932;10.980;2022-10-31T08:25:25;314.58;;;52.25;;
29210;SDS011;16250;49.932;10.980;2022-10-31T08:27:52;87.00;;;23.02;;
29210;SDS011;16250;49.932;10.980;2022-10-31T08:30:19;460.25;;;53.00;;
29210;SDS011;16250;49.932;10.980;2022-10-31T08:32:46;334.85;;;47.60;;
29210;SDS011;16250;49.932;10.980;2022-10-31T08:35:11;183.60;;;24.80;;
29210;SDS011;16250;49.932;10.980;2022-10-31T08:37:37;66.55;;;21.00;;
29210;SDS011;16250;49.932;10.980;2022-10-31T08:40:03;185.75;;;37.83;;
29210;SDS011;16250;49.932;10.980;2022-10-31T08:42:30;48.55;;;16.60;;
29210;SDS011;16250;49.932;10.980;2022-10-31T08:44:55;250.93;;;34.22;;
29210;SDS011;16250;49.932;10.980;2022-10-31T08:47:21;289.23;;;36.17;;
29210;SDS011;16250;49.932;10.980;2022-10-31T08:49:46;212.98;;;31.70;;
29210;SDS011;16250;49.932;10.980;2022-10-31T08:52:12;187.48;;;31.70;;
29210;SDS011;16250;49.932;10.980;2022-10-31T08:54:39;252.95;;;31.10;;
29210;SDS011;16250;49.932;10.980;2022-10-31T08:57:05;150.82;;;33.67;;
29210;SDS011;16250;49.932;10.980;2022-10-31T08:59:31;113.13;;;30.08;;
29210;SDS011;16250;49.932;10.980;2022-10-31T09:01:56;212.55;;;47.15;;
29210;SDS011;16250;49.932;10.980;2022-10-31T09:04:22;275.77;;;46.80;;
29210;SDS011;16250;49.932;10.980;2022-10-31T09:06:47;329.98;;;64.28;;
29210;SDS011;16250;49.932;10.980;2022-10-31T09:09:13;134.48;;;35.97;;
29210;SDS011;16250;49.932;10.980;2022-10-31T09:11:38;158.30;;;34.33;;
29210;SDS011;16250;49.932;10.980;2022-10-31T09:14:04;94.18;;;28.52;;
29210;SDS011;16250;49.932;10.980;2022-10-31T09:16:29;430.48;;;74.43;;
29210;SDS011;16250;49.932;10.980;2022-10-31T09:18:55;245.80;;;48.60;;
29210;SDS011;16250;49.932;10.980;2022-10-31T09:21:20;962.05;;;371.13;;
29210;SDS011;16250;49.932;10.980;2022-10-31T09:23:46;1052.53;;;576.08;;
29210;SDS011;16250;49.932;10.980;2022-10-31T09:26:11;192.55;;;38.63;;
29210;SDS011;16250;49.932;10.980;2022-10-31T09:28:37;79.63;;;26.70;;
29210;SDS011;16250;49.932;10.980;2022-10-31T09:31:02;120.88;;;37.15;;
29210;SDS011;16250;49.932;10.980;2022-10-31T09:33:28;165.45;;;39.30;;
29210;SDS011;16250;49.932;10.980;2022-10-31T09:35:54;104.30;;;39.72;;
29210;SDS011;16250;49.932;10.980;2022-10-31T09:38:20;46.45;;;27.52;;
29210;SDS011;16250;49.932;10.980;2022-10-31T09:43:25;28.63;;;22.58;;
29210;SDS011;16250;49.932;10.980;2022-10-31T09:46:11;37.78;;;24.70;;
29210;SDS011;16250;49.932;10.980;2022-10-31T09:51:25;35.20;;;24.55;;
29210;SDS011;16250;49.932;10.980;2022-10-31T09:53:59;27.63;;;23.02;;
29210;SDS011;16250;49.932;10.980;2022-10-31T09:56:26;30.10;;;22.95;;
29210;SDS011;16250;49.932;10.980;2022-10-31T09:58:54;31.45;;;25.52;;
29210;SDS011;16250;49.932;10.980;2022-10-31T10:01:28;49.42;;;29.85;;
29210;SDS011;16250;49.932;10.980;2022-10-31T10:04:29;29.83;;;23.58;;
29210;SDS011;16250;49.932;10.980;2022-10-31T10:07:06;21.48;;;19.02;;
29210;SDS011;16250;49.932;10.980;2022-10-31T10:09:39;25.13;;;20.75;;
29210;SDS011;16250;49.932;10.980;2022-10-31T10:17:59;21.02;;;18.83;;
29210;SDS011;16250;49.932;10.980;2022-10-31T10:20:31;18.48;;;14.77;;
29210;SDS011;16250;49.932;10.980;2022-10-31T10:26:01;15.93;;;14.32;;
29210;SDS011;16250;49.932;10.980;2022-10-31T10:28:48;17.52;;;15.55;;
29210;SDS011;16250;49.932;10.980;2022-10-31T10:31:28;16.77;;;14.82;;
29210;SDS011;16250;49.932;10.980;2022-10-31T10:36:50;15.07;;;13.57;;
29210;SDS011;16250;49.932;10.980;2022-10-31T10:39:27;15.00;;;13.50;;
29210;SDS011;16250;49.932;10.980;2022-10-31T10:41:57;13.75;;;12.25;;
29210;SDS011;16250;49.932;10.980;2022-10-31T10:44:45;14.87;;;13.43;;
29210;SDS011;16250;49.932;10.980;2022-10-31T10:47:52;19.27;;;13.20;;
29210;SDS011;16250;49.932;10.980;2022-10-31T10:50:27;15.63;;;13.25;;
29210;SDS011;16250;49.932;10.980;2022-10-31T10:53:16;14.82;;;13.27;;
29210;SDS011;16250;49.932;10.980;2022-10-31T10:58:39;14.02;;;12.65;;
29210;SDS011;16250;49.932;10.980;2022-10-31T11:01:10;13.70;;;12.30;;
29210;SDS011;16250;49.932;10.980;2022-10-31T11:03:37;14.00;;;12.55;;
29210;SDS011;16250;49.932;10.980;2022-10-31T11:06:04;14.30;;;12.55;;
29210;SDS011;16250;49.932;10.980;2022-10-31T11:08:41;14.10;;;12.52;;
29210;SDS011;16250;49.932;10.980;2022-10-31T11:13:58;14.50;;;11.95;;
29210;SDS011;16250;49.932;10.980;2022-10-31T11:16:29;15.02;;;12.25;;
29210;SDS011;16250;49.932;10.980;2022-10-31T11:21:50;12.48;;;11.15;;
29210;SDS011;16250;49.932;10.980;2022-10-31T11:24:22;14.90;;;11.68;;
29210;SDS011;16250;49.932;10.980;2022-10-31T11:27:02;14.95;;;11.80;;
29210;SDS011;16250;49.932;10.980;2022-10-31T11:29:36;11.55;;;10.45;;
29210;SDS011;16250;49.932;10.980;2022-10-31T11:32:02;11.48;;;10.38;;
29210;SDS011;16250;49.932;10.980;2022-10-31T11:34:32;12.02;;;10.75;;
29210;SDS011;16250;49.932;10.980;2022-10-31T11:37:17;11.05;;;9.93;;
29210;SDS011;16250;49.932;10.980;2022-10-31T11:39:53;11.93;;;10.15;;
29210;SDS011;16250;49.932;10.980;2022-10-31T11:42:36;10.70;;;9.60;;
29210;SDS011;16250;49.932;10.980;2022-10-31T11:45:06;13.50;;;10.15;;
29210;SDS011;16250;49.932;10.980;2022-10-31T11:47:40;10.15;;;9.15;;
29210;SDS011;16250;49.932;10.980;2022-10-31T11:50:09;11.57;;;10.18;;
29210;SDS011;16250;49.932;10.980;2022-10-31T11:52:37;10.18;;;9.13;;
29210;SDS011;16250;49.932;10.980;2022-10-31T11:55:15;12.35;;;10.60;;
29210;SDS011;16250;49.932;10.980;2022-10-31T11:57:51;11.10;;;9.88;;
29210;SDS011;16250;49.932;10.980;2022-10-31T12:00:29;11.30;;;10.10;;
29210;SDS011;16250;49.932;10.980;2022-10-31T12:05:50;11.80;;;10.60;;
29210;SDS011;16250;49.932;10.980;2022-10-31T12:08:30;11.15;;;9.95;;
29210;SDS011;16250;49.932;10.980;2022-10-31T12:11:05;11.93;;;10.60;;
29210;SDS011;16250;49.932;10.980;2022-10-31T12:13:39;12.60;;;11.30;;
29210;SDS011;16250;49.932;10.980;2022-10-31T12:21:32;13.05;;;11.48;;
29210;SDS011;16250;49.932;10.980;2022-10-31T12:24:16;13.80;;;10.55;;
29210;SDS011;16250;49.932;10.980;2022-10-31T12:26:59;11.75;;;10.35;;
29210;SDS011;16250;49.932;10.980;2022-10-31T12:29:45;12.30;;;10.95;;
29210;SDS011;16250;49.932;10.980;2022-10-31T12:40:36;10.38;;;8.85;;
29210;SDS011;16250;49.932;10.980;2022-10-31T12:48:34;9.33;;;8.30;;
29210;SDS011;16250;49.932;10.980;2022-10-31T12:53:55;11.88;;;8.77;;
29210;SDS011;16250;49.932;10.980;2022-10-31T12:59:11;10.35;;;9.25;;
29210;SDS011;16250;49.932;10.980;2022-10-31T13:02:17;11.73;;;8.85;;
29210;SDS011;16250;49.932;10.980;2022-10-31T13:04:50;10.38;;;9.00;;
29210;SDS011;16250;49.932;10.980;2022-10-31T13:07:24;10.93;;;9.20;;
29210;SDS011;16250;49.932;10.980;2022-10-31T13:09:58;9.90;;;8.90;;
29210;SDS011;16250;49.932;10.980;2022-10-31T13:12:32;10.35;;;8.80;;
29210;SDS011;16250;49.932;10.980;2022-10-31T13:15:13;10.95;;;9.23;;
29210;SDS011;16250;49.932;10.980;2022-10-31T13:17:45;11.27;;;9.32;;
29210;SDS011;16250;49.932;10.980;2022-10-31T13:20:22;9.88;;;8.85;;
29210;SDS011;16250;49.932;10.980;2022-10-31T13:22:54;16.73;;;10.60;;
29210;SDS011;16250;49.932;10.980;2022-10-31T13:25:25;11.70;;;9.80;;
29210;SDS011;16250;49.932;10.980;2022-10-31T13:27:57;11.57;;;10.02;;
29210;SDS011;16250;49.932;10.980;2022-10-31T13:30:42;11.13;;;10.13;;
29210;SDS011;16250;49.932;10.980;2022-10-31T13:33:13;13.55;;;9.70;;
29210;SDS011;16250;49.932;10.980;2022-10-31T13:38:37;12.32;;;9.98;;
29210;SDS011;16250;49.932;10.980;2022-10-31T13:41:27;12.43;;;11.00;;
29210;SDS011;16250;49.932;10.980;2022-10-31T13:44:13;11.40;;;10.20;;
29210;SDS011;16250;49.932;10.980;2022-10-31T13:46:42;11.65;;;10.48;;
29210;SDS011;16250;49.932;10.980;2022-10-31T13:51:53;19.02;;;11.65;;
29210;SDS011;16250;49.932;10.980;2022-10-31T13:54:41;11.98;;;10.70;;
29210;SDS011;16250;49.932;10.980;2022-10-31T13:57:14;15.75;;;10.70;;
29210;SDS011;16250;49.932;10.980;2022-10-31T14:02:47;14.95;;;11.18;;
29210;SDS011;16250;49.932;10.980;2022-10-31T14:05:24;14.40;;;10.90;;
29210;SDS011;16250;49.932;10.980;2022-10-31T14:07:52;14.68;;;11.77;;
29210;SDS011;16250;49.932;10.980;2022-10-31T14:10:20;14.77;;;11.35;;
29210;SDS011;16250;49.932;10.980;2022-10-31T14:12:51;13.05;;;11.15;;
29210;SDS011;16250;49.932;10.980;2022-10-31T14:15:22;12.23;;;11.02;;
29210;SDS011;16250;49.932;10.980;2022-10-31T14:17:56;12.70;;;11.40;;
29210;SDS011;16250;49.932;10.980;2022-10-31T14:23:35;14.25;;;12.68;;
29210;SDS011;16250;49.932;10.980;2022-10-31T14:29:20;12.82;;;11.15;;
29210;SDS011;16250;49.932;10.980;2022-10-31T14:31:44;13.63;;;11.98;;
29210;SDS011;16250;49.932;10.980;2022-10-31T14:34:22;15.88;;;10.90;;
29210;SDS011;16250;49.932;10.980;2022-10-31T14:50:22;12.35;;;9.27;;
29210;SDS011;16250;49.932;10.980;2022-10-31T14:52:50;10.93;;;9.25;;
29210;SDS011;16250;49.932;10.980;2022-10-31T14:55:19;12.15;;;10.40;;
29210;SDS011;16250;49.932;10.980;2022-10-31T14:57:56;12.07;;;9.88;;
29210;SDS011;16250;49.932;10.980;2022-10-31T15:00:25;12.30;;;10.57;;
29210;SDS011;16250;49.932;10.980;2022-10-31T15:05:25;14.82;;;10.13;;
29210;SDS011;16250;49.932;10.980;2022-10-31T15:07:56;14.80;;;10.90;;
29210;SDS011;16250;49.932;10.980;2022-10-31T15:10:27;13.68;;;10.40;;
29210;SDS011;16250;49.932;10.980;2022-10-31T15:12:56;12.60;;;11.40;;
29210;SDS011;16250;49.932;10.980;2022-10-31T15:15:35;13.52;;;11.98;;
29210;SDS011;16250;49.932;10.980;2022-10-31T15:18:01;13.73;;;12.32;;
29210;SDS011;16250;49.932;10.980;2022-10-31T15:20:30;13.55;;;11.50;;
29210;SDS011;16250;49.932;10.980;2022-10-31T15:23:08;16.48;;;12.48;;
29210;SDS011;16250;49.932;10.980;2022-10-31T15:25:36;13.52;;;12.23;;
29210;SDS011;16250;49.932;10.980;2022-10-31T15:28:11;16.17;;;14.18;;
29210;SDS011;16250;49.932;10.980;2022-10-31T15:31:04;18.08;;;14.45;;
29210;SDS011;16250;49.932;10.980;2022-10-31T15:33:30;17.73;;;15.88;;
29210;SDS011;16250;49.932;10.980;2022-10-31T15:36:04;17.55;;;14.52;;
29210;SDS011;16250;49.932;10.980;2022-10-31T15:38:30;17.67;;;15.02;;
29210;SDS011;16250;49.932;10.980;2022-10-31T15:41:03;17.95;;;15.77;;
29210;SDS011;16250;49.932;10.980;2022-10-31T15:43:35;17.83;;;16.00;;
29210;SDS011;16250;49.932;10.980;2022-10-31T15:46:03;16.48;;;14.77;;
29210;SDS011;16250;49.932;10.980;2022-10-31T15:48:32;19.48;;;17.20;;
29210;SDS011;16250;49.932;10.980;2022-10-31T15:50:59;17.17;;;14.85;;
29210;SDS011;16250;49.932;10.980;2022-10-31T15:53:26;22.67;;;16.08;;
29210;SDS011;16250;49.932;10.980;2022-10-31T15:55:56;18.45;;;15.77;;
29210;SDS011;16250;49.932;10.980;2022-10-31T15:58:24;19.50;;;16.25;;
29210;SDS011;16250;49.932;10.980;2022-10-31T16:03:29;17.50;;;15.05;;
29210;SDS011;16250;49.932;10.980;2022-10-31T16:05:57;19.73;;;17.70;;
29210;SDS011;16250;49.932;10.980;2022-10-31T16:13:26;17.25;;;15.38;;
29210;SDS011;16250;49.932;10.980;2022-10-31T16:15:55;18.63;;;15.32;;
29210;SDS011;16250;49.932;10.980;2022-10-31T16:18:24;20.98;;;17.05;;
29210;SDS011;16250;49.932;10.980;2022-10-31T16:20:53;23.23;;;18.20;;
29210;SDS011;16250;49.932;10.980;2022-10-31T16:23:20;21.83;;;18.42;;
29210;SDS011;16250;49.932;10.980;2022-10-31T16:25:49;23.23;;;18.30;;